sensor_id;sensor_type;location;lat;lon;timestamp;P1;durP1;ratioP1;P2;durP2;ratioP2
15256;SDS011;7731;50.720;6.912;2023-02-01T00:00:35;13.07;;;7.60;;
15256;SDS011;7731;50.720;6.912;2023-02-01T00:03:09;14.70;;;8.00;;
15256;SDS011;7731;50.720;6.912;2023-02-01T00:05:41;12.57;;;8.20;;
15256;SDS011;7731;50.720;6.912;2023-02-01T00:08:11;14.00;;;7.67;;
15256;SDS011;7731;50.720;6.912;2023-02-01T00:10:41;16.03;;;7.87;;
15256;SDS011;7731;50.720;6.912;2023-02-01T00:13:12;17.00;;;9.10;;
15256;SDS011;7731;50.720;6.912;2023-02-01T00:15:42;19.30;;;8.77;;
15256;SDS011;7731;50.720;6.912;2023-02-01T00:18:16;17.80;;;8.53;;
15256;SDS011;7731;50.720;6.912;2023-02-01T00:20:46;17.17;;;8.17;;
15256;SDS011;7731;50.720;6.912;2023-02-01T00:23:19;14.77;;;7.33;;
15256;SDS011;7731;50.720;6.912;2023-02-01T00:25:49;15.40;;;7.80;;
15256;SDS011;7731;50.720;6.912;2023-02-01T00:28:20;14.67;;;7.17;;
15256;SDS011;7731;50.720;6.912;2023-02-01T00:30:55;11.87;;;6.60;;
15256;SDS011;7731;50.720;6.912;2023-02-01T00:33:30;12.87;;;6.50;;
15256;SDS011;7731;50.720;6.912;2023-02-01T00:36:03;17.87;;;6.30;;
15256;SDS011;7731;50.720;6.912;2023-02-01T00:38:36;13.67;;;6.10;;
15256;SDS011;7731;50.720;6.912;2023-02-01T00:41:11;17.43;;;6.17;;
15256;SDS011;7731;50.720;6.912;2023-02-01T00:43:44;13.73;;;6.00;;
15256;SDS011;7731;50.720;6.912;2023-02-01T00:46:17;11.23;;;5.43;;
15256;SDS011;7731;50.720;6.912;2023-02-01T00:48:52;16.80;;;5.57;;
15256;SDS011;7731;50.720;6.912;2023-02-01T00:51:23;13.23;;;4.70;;
15256;SDS011;7731;50.720;6.912;2023-02-01T00:53:57;14.90;;;5.40;;
15256;SDS011;7731;50.720;6.912;2023-02-01T00:56:27;16.00;;;4.97;;
15256;SDS011;7731;50.720;6.912;2023-02-01T00:58:59;9.90;;;4.97;;
15256;SDS011;7731;50.720;6.912;2023-02-01T01:01:30;9.57;;;4.60;;
15256;SDS011;7731;50.720;6.912;2023-02-01T01:04:02;15.47;;;5.17;;
15256;SDS011;7731;50.720;6.912;2023-02-01T01:06:33;11.13;;;4.83;;
15256;SDS011;7731;50.720;6.912;2023-02-01T01:09:05;13.13;;;4.93;;
15256;SDS011;7731;50.720;6.912;2023-02-01T01:11:37;12.10;;;5.33;;
15256;SDS011;7731;50.720;6.912;2023-02-01T01:14:08;13.83;;;4.80;;
15256;SDS011;7731;50.720;6.912;2023-02-01T01:16:39;12.27;;;4.77;;
15256;SDS011;7731;50.720;6.912;2023-02-01T01:19:12;12.43;;;5.40;;
15256;SDS011;7731;50.720;6.912;2023-02-01T01:21:42;10.17;;;4.00;;
15256;SDS011;7731;50.720;6.912;2023-02-01T01:24:13;11.50;;;4.47;;
15256;SDS011;7731;50.720;6.912;2023-02-01T01:26:43;10.33;;;3.97;;
15256;SDS011;7731;50.720;6.912;2023-02-01T01:29:13;11.47;;;4.17;;
15256;SDS011;7731;50.720;6.912;2023-02-01T01:31:43;11.50;;;4.20;;
15256;SDS011;7731;50.720;6.912;2023-02-01T01:34:18;15.57;;;4.90;;
15256;SDS011;7731;50.720;6.912;2023-02-01T01:36:48;8.43;;;4.03;;
15256;SDS011;7731;50.720;6.912;2023-02-01T01:39:18;12.80;;;4.40;;
15256;SDS011;7731;50.720;6.912;2023-02-01T01:41:48;12.87;;;4.70;;
15256;SDS011;7731;50.720;6.912;2023-02-01T01:47:30;11.10;;;4.43;;
15256;SDS011;7731;50.720;6.912;2023-02-01T01:50:13;12.33;;;4.73;;
15256;SDS011;7731;50.720;6.912;2023-02-01T01:52:49;12.50;;;4.17;;
15256;SDS011;7731;50.720;6.912;2023-02-01T01:55:25;12.37;;;4.80;;
15256;SDS011;7731;50.720;6.912;2023-02-01T01:58:04;13.73;;;4.37;;
15256;SDS011;7731;50.720;6.912;2023-02-01T02:00:41;15.00;;;5.10;;
15256;SDS011;7731;50.720;6.912;2023-02-01T02:03:14;15.60;;;5.10;;
15256;SDS011;7731;50.720;6.912;2023-02-01T02:05:54;13.77;;;5.00;;
15256;SDS011;7731;50.720;6.912;2023-02-01T02:08:29;13.90;;;5.37;;
15256;SDS011;7731;50.720;6.912;2023-02-01T02:10:59;15.83;;;5.30;;
15256;SDS011;7731;50.720;6.912;2023-02-01T02:13:31;16.30;;;5.33;;
15256;SDS011;7731;50.720;6.912;2023-02-01T02:16:08;12.63;;;5.77;;
15256;SDS011;7731;50.720;6.912;2023-02-01T02:18:59;16.13;;;5.60;;
15256;SDS011;7731;50.720;6.912;2023-02-01T02:22:12;14.27;;;5.93;;
15256;SDS011;7731;50.720;6.912;2023-02-01T02:35:27;13.70;;;5.50;;
15256;SDS011;7731;50.720;6.912;2023-02-01T02:38:15;16.97;;;5.70;;
15256;SDS011;7731;50.720;6.912;2023-02-01T02:40:57;16.23;;;5.93;;
15256;SDS011;7731;50.720;6.912;2023-02-01T02:43:42;12.33;;;5.30;;
15256;SDS011;7731;50.720;6.912;2023-02-01T02:46:36;13.30;;;6.03;;
15256;SDS011;7731;50.720;6.912;2023-02-01T02:49:29;12.80;;;4.83;;
15256;SDS011;7731;50.720;6.912;2023-02-01T02:52:12;13.03;;;4.90;;
15256;SDS011;7731;50.720;6.912;2023-02-01T02:55:15;13.20;;;5.37;;
15256;SDS011;7731;50.720;6.912;2023-02-01T02:57:47;13.83;;;5.00;;
15256;SDS011;7731;50.720;6.912;2023-02-01T03:00:32;13.27;;;4.83;;
15256;SDS011;7731;50.720;6.912;2023-02-01T03:03:17;19.70;;;4.83;;
15256;SDS011;7731;50.720;6.912;2023-02-01T03:05:59;11.10;;;4.37;;
15256;SDS011;7731;50.720;6.912;2023-02-01T03:08:36;9.63;;;4.00;;
15256;SDS011;7731;50.720;6.912;2023-02-01T03:11:12;14.97;;;5.20;;
15256;SDS011;7731;50.720;6.912;2023-02-01T03:13:44;13.20;;;5.13;;
15256;SDS011;7731;50.720;6.912;2023-02-01T03:16:18;13.10;;;4.33;;
15256;SDS011;7731;50.720;6.912;2023-02-01T03:18:55;14.90;;;4.63;;
15256;SDS011;7731;50.720;6.912;2023-02-01T03:21:33;15.30;;;4.60;;
15256;SDS011;7731;50.720;6.912;2023-02-01T03:24:12;13.87;;;4.90;;
15256;SDS011;7731;50.720;6.912;2023-02-01T03:26:51;13.47;;;4.50;;
15256;SDS011;7731;50.720;6.912;2023-02-01T03:29:29;12.90;;;4.83;;
15256;SDS011;7731;50.720;6.912;2023-02-01T03:32:11;15.87;;;5.50;;
15256;SDS011;7731;50.720;6.912;2023-02-01T03:34:42;17.83;;;5.13;;
15256;SDS011;7731;50.720;6.912;2023-02-01T03:37:20;7.93;;;4.00;;
15256;SDS011;7731;50.720;6.912;2023-02-01T03:40:00;17.03;;;5.43;;
15256;SDS011;7731;50.720;6.912;2023-02-01T03:42:38;9.07;;;4.00;;
15256;SDS011;7731;50.720;6.912;2023-02-01T03:45:18;10.40;;;4.40;;
15256;SDS011;7731;50.720;6.912;2023-02-01T03:47:57;11.70;;;4.60;;
15256;SDS011;7731;50.720;6.912;2023-02-01T03:50:31;11.63;;;4.73;;
15256;SDS011;7731;50.720;6.912;2023-02-01T03:53:09;15.00;;;5.13;;
15256;SDS011;7731;50.720;6.912;2023-02-01T03:55:49;14.43;;;5.30;;
15256;SDS011;7731;50.720;6.912;2023-02-01T03:58:22;16.03;;;5.67;;
15256;SDS011;7731;50.720;6.912;2023-02-01T04:00:56;10.70;;;5.60;;
15256;SDS011;7731;50.720;6.912;2023-02-01T04:03:30;16.70;;;5.73;;
15256;SDS011;7731;50.720;6.912;2023-02-01T04:06:00;14.77;;;5.37;;
15256;SDS011;7731;50.720;6.912;2023-02-01T04:08:31;11.97;;;4.83;;
15256;SDS011;7731;50.720;6.912;2023-02-01T04:11:07;17.00;;;5.30;;
15256;SDS011;7731;50.720;6.912;2023-02-01T04:13:37;16.30;;;5.87;;
15256;SDS011;7731;50.720;6.912;2023-02-01T04:16:07;13.57;;;5.40;;
15256;SDS011;7731;50.720;6.912;2023-02-01T04:18:38;14.50;;;5.93;;
15256;SDS011;7731;50.720;6.912;2023-02-01T04:21:11;13.60;;;4.80;;
15256;SDS011;7731;50.720;6.912;2023-02-01T04:23:41;9.73;;;4.93;;
15256;SDS011;7731;50.720;6.912;2023-02-01T04:26:16;16.70;;;5.13;;
15256;SDS011;7731;50.720;6.912;2023-02-01T04:28:46;17.30;;;5.50;;
15256;SDS011;7731;50.720;6.912;2023-02-01T04:31:19;19.00;;;5.53;;
15256;SDS011;7731;50.720;6.912;2023-02-01T04:33:52;16.00;;;5.17;;
15256;SDS011;7731;50.720;6.912;2023-02-01T04:36:25;14.57;;;4.93;;
15256;SDS011;7731;50.720;6.912;2023-02-01T04:38:55;11.77;;;4.73;;
15256;SDS011;7731;50.720;6.912;2023-02-01T04:41:30;8.37;;;4.17;;
15256;SDS011;7731;50.720;6.912;2023-02-01T04:44:01;17.77;;;5.70;;
15256;SDS011;7731;50.720;6.912;2023-02-01T04:46:32;11.60;;;4.90;;
15256;SDS011;7731;50.720;6.912;2023-02-01T04:49:02;16.53;;;5.10;;
15256;SDS011;7731;50.720;6.912;2023-02-01T04:51:32;16.40;;;5.13;;
15256;SDS011;7731;50.720;6.912;2023-02-01T04:54:03;15.30;;;5.47;;
15256;SDS011;7731;50.720;6.912;2023-02-01T04:56:37;14.13;;;4.80;;
15256;SDS011;7731;50.720;6.912;2023-02-01T04:59:07;13.33;;;4.73;;
15256;SDS011;7731;50.720;6.912;2023-02-01T05:01:40;12.03;;;4.10;;
15256;SDS011;7731;50.720;6.912;2023-02-01T05:04:14;9.87;;;4.50;;
15256;SDS011;7731;50.720;6.912;2023-02-01T05:06:46;17.03;;;4.70;;
15256;SDS011;7731;50.720;6.912;2023-02-01T05:09:16;16.93;;;4.40;;
15256;SDS011;7731;50.720;6.912;2023-02-01T05:11:50;19.63;;;4.60;;
15256;SDS011;7731;50.720;6.912;2023-02-01T05:14:35;17.50;;;4.17;;
15256;SDS011;7731;50.720;6.912;2023-02-01T05:17:05;11.70;;;3.93;;
15256;SDS011;7731;50.720;6.912;2023-02-01T05:19:35;11.57;;;3.90;;
15256;SDS011;7731;50.720;6.912;2023-02-01T05:22:05;12.53;;;3.73;;
15256;SDS011;7731;50.720;6.912;2023-02-01T05:24:35;13.93;;;3.87;;
15256;SDS011;7731;50.720;6.912;2023-02-01T05:27:08;13.83;;;3.73;;
15256;SDS011;7731;50.720;6.912;2023-02-01T05:29:38;15.47;;;3.90;;
15256;SDS011;7731;50.720;6.912;2023-02-01T05:32:09;13.97;;;3.57;;
15256;SDS011;7731;50.720;6.912;2023-02-01T05:34:47;12.20;;;3.37;;
15256;SDS011;7731;50.720;6.912;2023-02-01T05:37:20;13.57;;;3.73;;
15256;SDS011;7731;50.720;6.912;2023-02-01T05:39:51;14.83;;;3.53;;
15256;SDS011;7731;50.720;6.912;2023-02-01T05:42:26;13.20;;;3.77;;
15256;SDS011;7731;50.720;6.912;2023-02-01T05:44:56;13.87;;;3.57;;
15256;SDS011;7731;50.720;6.912;2023-02-01T05:47:27;11.83;;;3.53;;
15256;SDS011;7731;50.720;6.912;2023-02-01T05:49:57;12.67;;;2.97;;
15256;SDS011;7731;50.720;6.912;2023-02-01T05:52:27;16.07;;;3.20;;
15256;SDS011;7731;50.720;6.912;2023-02-01T05:54:57;15.00;;;3.40;;
15256;SDS011;7731;50.720;6.912;2023-02-01T05:57:30;9.70;;;2.60;;
15256;SDS011;7731;50.720;6.912;2023-02-01T06:00:00;11.93;;;3.00;;
15256;SDS011;7731;50.720;6.912;2023-02-01T06:02:34;16.87;;;3.20;;
15256;SDS011;7731;50.720;6.912;2023-02-01T06:05:05;14.63;;;4.00;;
15256;SDS011;7731;50.720;6.912;2023-02-01T06:07:37;13.73;;;3.30;;
15256;SDS011;7731;50.720;6.912;2023-02-01T06:10:07;10.27;;;3.13;;
15256;SDS011;7731;50.720;6.912;2023-02-01T06:12:42;13.83;;;3.23;;
15256;SDS011;7731;50.720;6.912;2023-02-01T06:15:14;13.70;;;3.93;;
15256;SDS011;7731;50.720;6.912;2023-02-01T06:17:45;15.00;;;3.73;;
15256;SDS011;7731;50.720;6.912;2023-02-01T06:20:19;7.53;;;2.63;;
15256;SDS011;7731;50.720;6.912;2023-02-01T06:22:51;9.77;;;3.13;;
15256;SDS011;7731;50.720;6.912;2023-02-01T06:25:21;12.67;;;2.93;;
15256;SDS011;7731;50.720;6.912;2023-02-01T06:27:54;11.53;;;3.57;;
15256;SDS011;7731;50.720;6.912;2023-02-01T06:30:24;16.10;;;3.60;;
15256;SDS011;7731;50.720;6.912;2023-02-01T06:32:56;11.77;;;2.77;;
15256;SDS011;7731;50.720;6.912;2023-02-01T06:35:26;16.60;;;3.67;;
15256;SDS011;7731;50.720;6.912;2023-02-01T06:37:56;15.63;;;3.50;;
15256;SDS011;7731;50.720;6.912;2023-02-01T06:40:26;11.60;;;2.83;;
15256;SDS011;7731;50.720;6.912;2023-02-01T06:42:59;9.43;;;2.80;;
15256;SDS011;7731;50.720;6.912;2023-02-01T06:45:29;15.07;;;3.97;;
15256;SDS011;7731;50.720;6.912;2023-02-01T06:47:59;13.80;;;4.13;;
15256;SDS011;7731;50.720;6.912;2023-02-01T06:50:30;15.83;;;3.70;;
15256;SDS011;7731;50.720;6.912;2023-02-01T06:53:02;17.07;;;3.93;;
15256;SDS011;7731;50.720;6.912;2023-02-01T06:55:32;10.33;;;3.33;;
15256;SDS011;7731;50.720;6.912;2023-02-01T06:58:06;12.83;;;3.07;;
15256;SDS011;7731;50.720;6.912;2023-02-01T07:00:36;16.87;;;4.53;;
15256;SDS011;7731;50.720;6.912;2023-02-01T07:03:06;12.63;;;3.93;;
15256;SDS011;7731;50.720;6.912;2023-02-01T07:05:37;14.30;;;3.87;;
15256;SDS011;7731;50.720;6.912;2023-02-01T07:08:07;17.20;;;3.73;;
15256;SDS011;7731;50.720;6.912;2023-02-01T07:10:37;14.40;;;3.80;;
15256;SDS011;7731;50.720;6.912;2023-02-01T07:13:10;13.63;;;3.53;;
15256;SDS011;7731;50.720;6.912;2023-02-01T07:15:40;20.13;;;3.93;;
15256;SDS011;7731;50.720;6.912;2023-02-01T07:18:14;14.93;;;3.93;;
15256;SDS011;7731;50.720;6.912;2023-02-01T07:20:48;13.60;;;3.60;;
15256;SDS011;7731;50.720;6.912;2023-02-01T07:23:20;10.80;;;3.10;;
15256;SDS011;7731;50.720;6.912;2023-02-01T07:25:52;16.63;;;3.83;;
15256;SDS011;7731;50.720;6.912;2023-02-01T07:28:26;14.77;;;3.83;;
15256;SDS011;7731;50.720;6.912;2023-02-01T07:31:01;12.87;;;3.77;;
15256;SDS011;7731;50.720;6.912;2023-02-01T07:33:33;10.60;;;3.43;;
15256;SDS011;7731;50.720;6.912;2023-02-01T07:36:04;21.63;;;4.47;;
15256;SDS011;7731;50.720;6.912;2023-02-01T07:38:40;16.97;;;4.07;;
15256;SDS011;7731;50.720;6.912;2023-02-01T07:41:10;11.07;;;4.10;;
15256;SDS011;7731;50.720;6.912;2023-02-01T07:43:43;16.97;;;4.37;;
15256;SDS011;7731;50.720;6.912;2023-02-01T07:46:13;10.97;;;4.07;;
15256;SDS011;7731;50.720;6.912;2023-02-01T07:48:44;15.53;;;3.80;;
15256;SDS011;7731;50.720;6.912;2023-02-01T07:51:14;12.97;;;4.20;;
15256;SDS011;7731;50.720;6.912;2023-02-01T07:53:46;12.00;;;4.00;;
15256;SDS011;7731;50.720;6.912;2023-02-01T07:56:21;11.97;;;3.50;;
15256;SDS011;7731;50.720;6.912;2023-02-01T07:58:54;17.87;;;4.47;;
15256;SDS011;7731;50.720;6.912;2023-02-01T08:01:27;15.80;;;4.17;;
15256;SDS011;7731;50.720;6.912;2023-02-01T08:03:57;15.23;;;3.60;;
15256;SDS011;7731;50.720;6.912;2023-02-01T08:06:29;13.93;;;4.03;;
15256;SDS011;7731;50.720;6.912;2023-02-01T08:09:05;8.47;;;4.10;;
15256;SDS011;7731;50.720;6.912;2023-02-01T08:11:37;15.47;;;3.80;;
15256;SDS011;7731;50.720;6.912;2023-02-01T08:14:10;12.57;;;3.70;;
15256;SDS011;7731;50.720;6.912;2023-02-01T08:16:40;10.77;;;3.47;;
15256;SDS011;7731;50.720;6.912;2023-02-01T08:19:10;13.17;;;3.80;;
15256;SDS011;7731;50.720;6.912;2023-02-01T08:21:41;11.77;;;4.00;;
15256;SDS011;7731;50.720;6.912;2023-02-01T08:24:12;13.00;;;3.83;;
15256;SDS011;7731;50.720;6.912;2023-02-01T08:26:42;17.23;;;4.30;;
15256;SDS011;7731;50.720;6.912;2023-02-01T08:29:15;17.70;;;4.03;;
15256;SDS011;7731;50.720;6.912;2023-02-01T08:31:45;11.90;;;3.93;;
15256;SDS011;7731;50.720;6.912;2023-02-01T08:34:17;12.13;;;3.80;;
15256;SDS011;7731;50.720;6.912;2023-02-01T08:36:47;14.13;;;4.17;;
15256;SDS011;7731;50.720;6.912;2023-02-01T08:39:18;13.30;;;3.80;;
15256;SDS011;7731;50.720;6.912;2023-02-01T08:41:48;10.33;;;3.33;;
15256;SDS011;7731;50.720;6.912;2023-02-01T08:44:34;16.97;;;3.47;;
15256;SDS011;7731;50.720;6.912;2023-02-01T08:47:04;12.20;;;3.70;;
15256;SDS011;7731;50.720;6.912;2023-02-01T08:49:34;10.23;;;3.70;;
15256;SDS011;7731;50.720;6.912;2023-02-01T08:52:04;12.33;;;3.47;;
15256;SDS011;7731;50.720;6.912;2023-02-01T08:54:41;10.23;;;3.47;;
15256;SDS011;7731;50.720;6.912;2023-02-01T08:57:11;8.00;;;3.03;;
15256;SDS011;7731;50.720;6.912;2023-02-01T08:59:44;10.27;;;3.13;;
15256;SDS011;7731;50.720;6.912;2023-02-01T09:02:17;10.17;;;2.93;;
15256;SDS011;7731;50.720;6.912;2023-02-01T09:04:47;10.07;;;3.80;;
15256;SDS011;7731;50.720;6.912;2023-02-01T09:07:21;12.47;;;3.77;;
15256;SDS011;7731;50.720;6.912;2023-02-01T09:09:53;10.87;;;3.73;;
15256;SDS011;7731;50.720;6.912;2023-02-01T09:12:27;13.10;;;3.33;;
15256;SDS011;7731;50.720;6.912;2023-02-01T09:15:08;12.20;;;2.93;;
15256;SDS011;7731;50.720;6.912;2023-02-01T09:17:39;11.10;;;3.07;;
15256;SDS011;7731;50.720;6.912;2023-02-01T09:20:10;13.00;;;3.33;;
15256;SDS011;7731;50.720;6.912;2023-02-01T09:22:41;15.40;;;3.40;;
15256;SDS011;7731;50.720;6.912;2023-02-01T09:25:12;12.83;;;3.33;;
15256;SDS011;7731;50.720;6.912;2023-02-01T09:27:44;15.00;;;4.07;;
15256;SDS011;7731;50.720;6.912;2023-02-01T09:30:17;11.87;;;3.00;;
15256;SDS011;7731;50.720;6.912;2023-02-01T09:32:48;11.33;;;3.50;;
15256;SDS011;7731;50.720;6.912;2023-02-01T09:35:18;16.70;;;3.53;;
15256;SDS011;7731;50.720;6.912;2023-02-01T09:37:48;11.17;;;3.07;;
15256;SDS011;7731;50.720;6.912;2023-02-01T09:40:19;14.50;;;3.70;;
15256;SDS011;7731;50.720;6.912;2023-02-01T09:42:58;11.53;;;2.93;;
15256;SDS011;7731;50.720;6.912;2023-02-01T09:45:51;9.80;;;3.53;;
15256;SDS011;7731;50.720;6.912;2023-02-01T09:48:34;8.20;;;2.80;;
15256;SDS011;7731;50.720;6.912;2023-02-01T09:51:12;10.20;;;2.93;;
15256;SDS011;7731;50.720;6.912;2023-02-01T09:53:53;14.27;;;3.33;;
15256;SDS011;7731;50.720;6.912;2023-02-01T09:56:34;9.43;;;2.43;;
15256;SDS011;7731;50.720;6.912;2023-02-01T09:59:15;12.13;;;3.27;;
15256;SDS011;7731;50.720;6.912;2023-02-01T10:02:03;13.23;;;3.23;;
15256;SDS011;7731;50.720;6.912;2023-02-01T10:04:42;11.03;;;2.90;;
15256;SDS011;7731;50.720;6.912;2023-02-01T10:07:16;12.10;;;3.00;;
15256;SDS011;7731;50.720;6.912;2023-02-01T10:10:02;9.70;;;3.55;;
15256;SDS011;7731;50.720;6.912;2023-02-01T10:16:10;9.33;;;3.03;;
15256;SDS011;7731;50.720;6.912;2023-02-01T10:22:14;14.77;;;3.67;;
15256;SDS011;7731;50.720;6.912;2023-02-01T10:25:20;11.38;;;3.50;;
15256;SDS011;7731;50.720;6.912;2023-02-01T10:27:55;14.88;;;3.25;;
15256;SDS011;7731;50.720;6.912;2023-02-01T10:30:40;12.80;;;3.33;;
15256;SDS011;7731;50.720;6.912;2023-02-01T10:33:19;12.20;;;3.80;;
15256;SDS011;7731;50.720;6.912;2023-02-01T10:35:58;11.38;;;3.63;;
15256;SDS011;7731;50.720;6.912;2023-02-01T10:38:43;13.50;;;3.28;;
15256;SDS011;7731;50.720;6.912;2023-02-01T10:41:15;13.80;;;3.53;;
15256;SDS011;7731;50.720;6.912;2023-02-01T10:43:50;9.55;;;3.10;;
15256;SDS011;7731;50.720;6.912;2023-02-01T10:46:26;11.07;;;3.47;;
15256;SDS011;7731;50.720;6.912;2023-02-01T10:48:58;10.88;;;3.75;;
15256;SDS011;7731;50.720;6.912;2023-02-01T10:51:39;11.40;;;3.17;;
15256;SDS011;7731;50.720;6.912;2023-02-01T10:54:16;11.15;;;3.22;;
15256;SDS011;7731;50.720;6.912;2023-02-01T10:59:23;12.98;;;3.33;;
15256;SDS011;7731;50.720;6.912;2023-02-01T11:01:59;11.13;;;3.35;;
15256;SDS011;7731;50.720;6.912;2023-02-01T11:04:34;12.38;;;3.47;;
15256;SDS011;7731;50.720;6.912;2023-02-01T11:07:12;11.98;;;3.40;;
15256;SDS011;7731;50.720;6.912;2023-02-01T11:09:49;11.20;;;3.22;;
15256;SDS011;7731;50.720;6.912;2023-02-01T11:12:24;8.20;;;2.97;;
15256;SDS011;7731;50.720;6.912;2023-02-01T11:15:02;9.85;;;3.45;;
15256;SDS011;7731;50.720;6.912;2023-02-01T11:17:51;12.45;;;3.15;;
15256;SDS011;7731;50.720;6.912;2023-02-01T11:20:26;11.43;;;3.40;;
15256;SDS011;7731;50.720;6.912;2023-02-01T11:23:16;7.47;;;2.88;;
15256;SDS011;7731;50.720;6.912;2023-02-01T11:25:51;12.80;;;3.20;;
15256;SDS011;7731;50.720;6.912;2023-02-01T11:28:25;15.20;;;3.20;;
15256;SDS011;7731;50.720;6.912;2023-02-01T11:31:08;11.57;;;2.87;;
15256;SDS011;7731;50.720;6.912;2023-02-01T11:33:45;11.27;;;3.00;;
15256;SDS011;7731;50.720;6.912;2023-02-01T11:36:21;12.27;;;3.50;;
15256;SDS011;7731;50.720;6.912;2023-02-01T11:39:10;12.83;;;3.03;;
15256;SDS011;7731;50.720;6.912;2023-02-01T11:41:58;13.87;;;3.13;;
15256;SDS011;7731;50.720;6.912;2023-02-01T11:44:34;13.27;;;3.73;;
15256;SDS011;7731;50.720;6.912;2023-02-01T11:47:18;11.87;;;3.60;;
15256;SDS011;7731;50.720;6.912;2023-02-01T11:49:53;9.93;;;3.33;;
15256;SDS011;7731;50.720;6.912;2023-02-01T11:52:32;13.53;;;3.00;;
15256;SDS011;7731;50.720;6.912;2023-02-01T11:58:28;12.37;;;3.33;;
15256;SDS011;7731;50.720;6.912;2023-02-01T12:01:52;11.23;;;2.87;;
15256;SDS011;7731;50.720;6.912;2023-02-01T12:05:09;12.40;;;3.00;;
15256;SDS011;7731;50.720;6.912;2023-02-01T12:11:24;8.93;;;2.83;;
15256;SDS011;7731;50.720;6.912;2023-02-01T12:14:35;9.40;;;2.27;;
15256;SDS011;7731;50.720;6.912;2023-02-01T12:20:35;7.43;;;2.40;;
15256;SDS011;7731;50.720;6.912;2023-02-01T12:24:08;7.23;;;2.30;;
15256;SDS011;7731;50.720;6.912;2023-02-01T12:27:22;14.00;;;2.57;;
15256;SDS011;7731;50.720;6.912;2023-02-01T12:30:24;9.70;;;2.53;;
15256;SDS011;7731;50.720;6.912;2023-02-01T12:33:23;7.17;;;2.70;;
15256;SDS011;7731;50.720;6.912;2023-02-01T12:36:10;12.40;;;3.23;;
15256;SDS011;7731;50.720;6.912;2023-02-01T12:38:51;12.47;;;2.67;;
15256;SDS011;7731;50.720;6.912;2023-02-01T12:41:40;8.63;;;2.27;;
15256;SDS011;7731;50.720;6.912;2023-02-01T12:44:42;12.07;;;2.97;;
15256;SDS011;7731;50.720;6.912;2023-02-01T12:47:20;10.27;;;2.73;;
15256;SDS011;7731;50.720;6.912;2023-02-01T12:50:00;9.10;;;2.40;;
15256;SDS011;7731;50.720;6.912;2023-02-01T12:52:37;12.80;;;2.60;;
15256;SDS011;7731;50.720;6.912;2023-02-01T12:55:20;8.70;;;2.43;;
15256;SDS011;7731;50.720;6.912;2023-02-01T12:57:58;6.17;;;2.53;;
15256;SDS011;7731;50.720;6.912;2023-02-01T13:00:45;13.57;;;2.37;;
15256;SDS011;7731;50.720;6.912;2023-02-01T13:03:26;11.80;;;2.83;;
15256;SDS011;7731;50.720;6.912;2023-02-01T13:06:08;11.47;;;2.70;;
15256;SDS011;7731;50.720;6.912;2023-02-01T13:08:46;10.33;;;2.47;;
15256;SDS011;7731;50.720;6.912;2023-02-01T13:11:27;9.17;;;3.00;;
15256;SDS011;7731;50.720;6.912;2023-02-01T13:14:01;10.63;;;2.20;;
15256;SDS011;7731;50.720;6.912;2023-02-01T13:16:45;12.67;;;2.57;;
15256;SDS011;7731;50.720;6.912;2023-02-01T13:19:20;8.23;;;2.57;;
15256;SDS011;7731;50.720;6.912;2023-02-01T13:21:58;11.27;;;3.40;;
15256;SDS011;7731;50.720;6.912;2023-02-01T13:24:39;20.33;;;3.77;;
15256;SDS011;7731;50.720;6.912;2023-02-01T13:27:14;8.60;;;2.10;;
15256;SDS011;7731;50.720;6.912;2023-02-01T13:29:48;8.73;;;3.00;;
15256;SDS011;7731;50.720;6.912;2023-02-01T13:32:33;13.47;;;2.87;;
15256;SDS011;7731;50.720;6.912;2023-02-01T13:35:55;12.87;;;2.90;;
15256;SDS011;7731;50.720;6.912;2023-02-01T13:38:58;17.13;;;3.27;;
15256;SDS011;7731;50.720;6.912;2023-02-01T13:42:03;6.27;;;2.50;;
15256;SDS011;7731;50.720;6.912;2023-02-01T13:44:45;15.57;;;3.03;;
15256;SDS011;7731;50.720;6.912;2023-02-01T13:47:22;8.47;;;2.73;;
15256;SDS011;7731;50.720;6.912;2023-02-01T13:50:01;8.73;;;2.37;;
15256;SDS011;7731;50.720;6.912;2023-02-01T13:52:43;14.77;;;2.80;;
15256;SDS011;7731;50.720;6.912;2023-02-01T13:55:32;14.00;;;2.83;;
15256;SDS011;7731;50.720;6.912;2023-02-01T13:58:15;8.00;;;2.63;;
15256;SDS011;7731;50.720;6.912;2023-02-01T14:00:50;11.17;;;2.47;;
15256;SDS011;7731;50.720;6.912;2023-02-01T14:03:43;11.67;;;2.60;;
15256;SDS011;7731;50.720;6.912;2023-02-01T14:09:31;9.80;;;2.27;;
15256;SDS011;7731;50.720;6.912;2023-02-01T14:15:32;6.20;;;2.57;;
15256;SDS011;7731;50.720;6.912;2023-02-01T14:18:03;13.63;;;2.40;;
15256;SDS011;7731;50.720;6.912;2023-02-01T14:21:24;12.30;;;2.80;;
15256;SDS011;7731;50.720;6.912;2023-02-01T14:24:02;8.03;;;2.73;;
15256;SDS011;7731;50.720;6.912;2023-02-01T14:26:52;13.83;;;2.77;;
15256;SDS011;7731;50.720;6.912;2023-02-01T14:29:32;10.03;;;2.53;;
15256;SDS011;7731;50.720;6.912;2023-02-01T14:32:06;10.80;;;2.33;;
15256;SDS011;7731;50.720;6.912;2023-02-01T14:34:49;8.50;;;2.13;;
15256;SDS011;7731;50.720;6.912;2023-02-01T14:37:26;12.70;;;2.80;;
15256;SDS011;7731;50.720;6.912;2023-02-01T14:40:04;9.00;;;2.50;;
15256;SDS011;7731;50.720;6.912;2023-02-01T14:42:49;7.77;;;2.23;;
15256;SDS011;7731;50.720;6.912;2023-02-01T14:51:15;8.33;;;2.40;;
15256;SDS011;7731;50.720;6.912;2023-02-01T14:53:49;6.90;;;2.10;;
15256;SDS011;7731;50.720;6.912;2023-02-01T14:56:23;12.13;;;2.50;;
15256;SDS011;7731;50.720;6.912;2023-02-01T14:58:57;9.37;;;2.10;;
15256;SDS011;7731;50.720;6.912;2023-02-01T15:01:37;8.90;;;2.00;;
15256;SDS011;7731;50.720;6.912;2023-02-01T15:04:16;8.47;;;2.40;;
15256;SDS011;7731;50.720;6.912;2023-02-01T15:06:48;5.77;;;2.20;;
15256;SDS011;7731;50.720;6.912;2023-02-01T15:09:25;8.23;;;2.07;;
15256;SDS011;7731;50.720;6.912;2023-02-01T15:12:03;10.27;;;2.73;;
15256;SDS011;7731;50.720;6.912;2023-02-01T15:15:03;8.27;;;2.50;;
15256;SDS011;7731;50.720;6.912;2023-02-01T15:17:49;9.77;;;2.67;;
15256;SDS011;7731;50.720;6.912;2023-02-01T15:20:23;11.50;;;3.00;;
15256;SDS011;7731;50.720;6.912;2023-02-01T15:22:57;12.47;;;2.07;;
15256;SDS011;7731;50.720;6.912;2023-02-01T15:25:31;11.13;;;2.90;;
15256;SDS011;7731;50.720;6.912;2023-02-01T15:28:09;12.13;;;2.77;;
15256;SDS011;7731;50.720;6.912;2023-02-01T15:30:51;8.17;;;2.17;;
15256;SDS011;7731;50.720;6.912;2023-02-01T15:33:25;9.70;;;2.30;;
15256;SDS011;7731;50.720;6.912;2023-02-01T15:36:07;6.40;;;2.07;;
15256;SDS011;7731;50.720;6.912;2023-02-01T15:38:40;7.73;;;2.93;;
15256;SDS011;7731;50.720;6.912;2023-02-01T15:41:13;8.90;;;1.93;;
15256;SDS011;7731;50.720;6.912;2023-02-01T15:43:49;11.47;;;2.63;;
15256;SDS011;7731;50.720;6.912;2023-02-01T15:46:40;5.63;;;1.93;;
15256;SDS011;7731;50.720;6.912;2023-02-01T15:49:20;6.37;;;2.13;;
15256;SDS011;7731;50.720;6.912;2023-02-01T15:51:57;7.40;;;2.20;;
15256;SDS011;7731;50.720;6.912;2023-02-01T15:54:31;10.67;;;2.07;;
15256;SDS011;7731;50.720;6.912;2023-02-01T15:57:12;11.57;;;2.70;;
15256;SDS011;7731;50.720;6.912;2023-02-01T16:00:02;8.57;;;2.37;;
15256;SDS011;7731;50.720;6.912;2023-02-01T16:02:37;6.50;;;2.13;;
15256;SDS011;7731;50.720;6.912;2023-02-01T16:05:30;12.23;;;2.73;;
15256;SDS011;7731;50.720;6.912;2023-02-01T16:08:06;8.80;;;1.70;;
15256;SDS011;7731;50.720;6.912;2023-02-01T16:10:43;10.43;;;2.43;;
15256;SDS011;7731;50.720;6.912;2023-02-01T16:13:16;9.00;;;2.40;;
15256;SDS011;7731;50.720;6.912;2023-02-01T16:15:53;8.10;;;2.23;;
15256;SDS011;7731;50.720;6.912;2023-02-01T16:18:24;8.60;;;2.40;;
15256;SDS011;7731;50.720;6.912;2023-02-01T16:20:54;9.37;;;2.80;;
15256;SDS011;7731;50.720;6.912;2023-02-01T16:23:24;9.33;;;2.57;;
15256;SDS011;7731;50.720;6.912;2023-02-01T16:25:57;8.07;;;2.50;;
15256;SDS011;7731;50.720;6.912;2023-02-01T16:28:27;10.10;;;2.57;;
15256;SDS011;7731;50.720;6.912;2023-02-01T16:31:00;9.00;;;2.47;;
15256;SDS011;7731;50.720;6.912;2023-02-01T16:33:31;6.67;;;2.83;;